Time;durP1;ratioP1;P1;durP2;ratioP2;P2;SDS_P1;SDS_P2;PMS_P1;PMS_P2;Temp;Humidity;BMP_temperature;BMP_pressure;BME280_temperature;BME280_humidity;BME280_pressure;Samples;Min_cycle;Max_cycle;Signal;HPM_P1;HPM_P2
2021/11/09 00:01:02;;;;;;;0.88;0.30;;;11.90;60.50;;;;;;4894477;29;20132;-85
2021/11/09 00:03:29;;;;;;;0.52;0.20;;;11.90;60.60;;;;;;4911103;29;20870;-83
2021/11/09 00:06:32;;;;;;;0.20;0.20;;;11.90;60.70;;;;;;4910677;29;20044;-85
2021/11/09 00:09:05;;;;;;;0.20;0.20;;;11.90;60.60;;;;;;4908213;29;20147;-82
2021/11/09 00:11:31;;;;;;;0.52;0.15;;;11.90;60.70;;;;;;4910937;29;20040;-84
2021/11/09 00:13:57;;;;;;;0.30;0.28;;;11.80;60.80;;;;;;4911279;29;20605;-85
2021/11/09 00:16:24;;;;;;;0.30;0.30;;;11.80;60.90;;;;;;4911331;29;20043;-86
2021/11/09 00:18:50;;;;;;;0.43;0.40;;;11.80;61.10;;;;;;4893984;29;20118;-86
2021/11/09 00:21:18;;;;;;;0.75;0.50;;;11.80;61.10;;;;;;4911107;29;20052;-84
2021/11/09 00:23:46;;;;;;;0.30;0.30;;;11.80;61.20;;;;;;4911359;29;20038;-84
2021/11/09 00:26:13;;;;;;;0.40;0.30;;;11.80;61.30;;;;;;4910649;29;20047;-84
2021/11/09 00:28:39;;;;;;;0.32;0.32;;;11.80;61.40;;;;;;4911284;29;20036;-86
2021/11/09 00:31:06;;;;;;;0.65;0.30;;;11.80;61.50;;;;;;4910637;29;20039;-85
2021/11/09 00:33:32;;;;;;;0.20;0.20;;;11.80;61.60;;;;;;4911011;29;20820;-83
2021/11/09 00:35:58;;;;;;;0.95;0.63;;;11.80;61.60;;;;;;4914495;29;20123;-86
2021/11/09 00:38:24;;;;;;;1.00;0.40;;;11.80;61.80;;;;;;4914584;29;20095;-83
2021/11/09 00:40:50;;;;;;;1.95;0.22;;;11.80;62.00;;;;;;4913940;29;20036;-83
2021/11/09 00:43:18;;;;;;;0.40;0.40;;;11.80;61.80;;;;;;4914312;29;20032;-85
2021/11/09 00:45:45;;;;;;;1.85;0.30;;;11.80;62.00;;;;;;4913979;29;20569;-85
2021/11/09 00:48:11;;;;;;;0.45;0.25;;;11.80;62.10;;;;;;4913995;29;20036;-86
2021/11/09 00:50:39;;;;;;;0.55;0.20;;;11.80;62.20;;;;;;4913550;29;20048;-86
2021/11/09 00:53:07;;;;;;;1.35;0.32;;;11.80;62.20;;;;;;4894868;29;20055;-85
2021/11/09 00:55:34;;;;;;;0.50;0.30;;;11.80;62.40;;;;;;4896577;29;20043;-85
2021/11/09 00:58:00;;;;;;;0.68;0.40;;;11.80;62.60;;;;;;4898817;29;20032;-86
2021/11/09 01:00:28;;;;;;;0.50;0.47;;;11.80;62.70;;;;;;4918435;29;20039;-87
2021/11/09 01:02:58;;;;;;;0.82;0.35;;;11.70;62.80;;;;;;4918050;29;20036;-85
2021/11/09 01:05:26;;;;;;;0.30;0.30;;;11.70;62.90;;;;;;4914305;29;20522;-85
2021/11/09 01:07:57;;;;;;;0.40;0.30;;;11.70;63.00;;;;;;4910344;29;20040;-84
2021/11/09 01:10:26;;;;;;;0.50;0.40;;;11.70;63.20;;;;;;4915818;29;20046;-85
2021/11/09 01:12:52;;;;;;;0.30;0.30;;;11.70;63.30;;;;;;4896914;29;20047;-85
2021/11/09 01:15:18;;;;;;;0.30;0.30;;;11.70;63.40;;;;;;4913351;29;20032;-85
2021/11/09 01:17:44;;;;;;;0.30;0.30;;;11.70;63.50;;;;;;4913742;29;20127;-86
2021/11/09 01:20:15;;;;;;;0.80;0.22;;;11.70;63.70;;;;;;4896812;29;20032;-86
2021/11/09 01:22:42;;;;;;;0.60;0.30;;;11.60;63.80;;;;;;4912863;29;20134;-87
2021/11/09 01:25:09;;;;;;;0.20;0.20;;;11.60;63.90;;;;;;4914406;29;20419;-84
2021/11/09 01:27:35;;;;;;;0.47;0.20;;;11.60;64.00;;;;;;4913529;29;20158;-82
2021/11/09 01:30:04;;;;;;;0.40;0.30;;;11.60;64.10;;;;;;4913514;29;20534;-84
2021/11/09 01:32:30;;;;;;;0.65;0.40;;;11.60;64.20;;;;;;4913024;29;20040;-85
2021/11/09 01:34:56;;;;;;;0.20;0.20;;;11.60;64.30;;;;;;4913366;29;20587;-83
2021/11/09 01:37:21;;;;;;;0.50;0.32;;;11.60;64.30;;;;;;4913027;29;20056;-85
2021/11/09 01:39:48;;;;;;;0.40;0.40;;;11.60;64.30;;;;;;4912984;29;20099;-85
2021/11/09 01:42:15;;;;;;;0.47;0.20;;;11.70;64.30;;;;;;4913685;29;20040;-86
2021/11/09 01:44:41;;;;;;;0.30;0.30;;;11.70;64.40;;;;;;4912992;29;20428;-86
2021/11/09 01:47:06;;;;;;;0.20;0.20;;;11.60;64.50;;;;;;4913183;29;20050;-86
2021/11/09 01:49:32;;;;;;;0.30;0.30;;;11.60;64.60;;;;;;4912538;29;20039;-86
2021/11/09 01:51:58;;;;;;;0.20;0.20;;;11.70;64.90;;;;;;4912907;29;20120;-87
2021/11/09 01:54:24;;;;;;;0.30;0.30;;;11.70;64.90;;;;;;4896927;29;20036;-86
2021/11/09 01:56:50;;;;;;;0.30;0.30;;;11.70;64.90;;;;;;4913138;29;20141;-87
2021/11/09 01:59:16;;;;;;;0.40;0.40;;;11.70;64.80;;;;;;4913352;29;20040;-83
2021/11/09 02:01:43;;;;;;;0.40;0.30;;;11.70;64.70;;;;;;4896569;29;20036;-87
2021/11/09 02:04:10;;;;;;;0.98;0.30;;;11.70;64.70;;;;;;4913022;29;20032;-86
2021/11/09 02:06:37;;;;;;;0.80;0.20;;;11.70;64.60;;;;;;4912841;29;20742;-85
2021/11/09 02:09:16;;;;;;;0.40;0.32;;;11.70;64.40;;;;;;4912652;29;20058;-85
2021/11/09 02:11:43;;;;;;;0.30;0.20;;;11.60;64.30;;;;;;4912937;29;20084;-85
2021/11/09 02:14:10;;;;;;;0.20;0.10;;;11.60;64.10;;;;;;4912585;29;20423;-87
2021/11/09 02:16:37;;;;;;;0.30;0.28;;;11.60;63.90;;;;;;4913495;29;20556;-84
2021/11/09 02:19:05;;;;;;;0.20;0.10;;;11.60;63.70;;;;;;4912414;29;20036;-85
2021/11/09 02:21:32;;;;;;;0.93;0.20;;;11.60;63.70;;;;;;4914391;29;20032;-84
2021/11/09 02:23:58;;;;;;;0.47;0.13;;;11.60;63.70;;;;;;4912059;29;20043;-85
2021/11/09 02:26:25;;;;;;;0.40;0.20;;;11.50;63.60;;;;;;4912684;29;20043;-86
2021/11/09 02:28:54;;;;;;;0.15;0.15;;;11.40;63.60;;;;;;4894956;29;20032;-86
2021/11/09 02:31:20;;;;;;;0.30;0.30;;;11.40;63.40;;;;;;4912233;29;20042;-85
2021/11/09 02:33:48;;;;;;;0.20;0.10;;;11.40;63.40;;;;;;4895413;29;20043;-86
2021/11/09 02:36:15;;;;;;;0.20;0.13;;;11.40;63.30;;;;;;4895157;29;20052;-85
2021/11/09 02:38:41;;;;;;;0.30;0.30;;;11.40;63.30;;;;;;4912112;29;20070;-86
2021/11/09 02:41:07;;;;;;;0.10;0.10;;;11.40;63.30;;;;;;4912421;29;20059;-85
2021/11/09 02:43:33;;;;;;;0.10;0.10;;;11.30;63.30;;;;;;4895565;29;20044;-85
2021/11/09 02:49:18;;;;;;;0.50;0.20;;;11.30;63.20;;;;;;4911719;29;20031;-86
2021/11/09 02:51:52;;;;;;;0.43;0.20;;;11.30;63.20;;;;;;4894396;29;20091;-84
2021/11/09 02:54:40;;;;;;;1.65;0.30;;;11.30;63.20;;;;;;4894722;29;20575;-86
2021/11/09 02:57:16;;;;;;;0.22;0.20;;;11.20;63.20;;;;;;4910961;29;20051;-86
2021/11/09 03:02:36;;;;;;;0.50;0.10;;;11.10;63.40;;;;;;4911679;29;20169;-84
2021/11/09 03:05:16;;;;;;;0.45;0.45;;;11.10;63.30;;;;;;4911766;29;20044;-85
2021/11/09 03:07:53;;;;;;;0.43;0.10;;;11.10;63.40;;;;;;4911441;29;20040;-84
2021/11/09 03:10:27;;;;;;;0.32;0.20;;;11.10;63.40;;;;;;4911126;29;20555;-82
2021/11/09 03:12:54;;;;;;;0.20;0.20;;;11.10;63.40;;;;;;4911464;29;20035;-84
2021/11/09 03:15:26;;;;;;;0.68;0.20;;;11.10;63.50;;;;;;4894143;29;20427;-84
2021/11/09 03:18:00;;;;;;;1.02;0.10;;;11.00;63.50;;;;;;4911219;29;20032;-85
2021/11/09 03:45:26;;;;;;;0.20;0.20;;;10.90;63.80;;;;;;4911407;29;20040;-88
2021/11/09 03:47:46;;;;;;;1.02;0.20;;;10.90;63.90;;;;;;4907975;29;20586;-89
2021/11/09 03:50:13;;;;;;;1.55;0.52;;;10.90;63.80;;;;;;4893700;29;20033;-87
2021/11/09 03:52:47;;;;;;;0.55;0.20;;;10.90;63.90;;;;;;4910168;29;20028;-87
2021/11/09 03:55:19;;;;;;;0.15;0.10;;;11.00;63.80;;;;;;4894034;29;20418;-89
2021/11/09 03:58:03;;;;;;;0.20;0.10;;;10.90;63.60;;;;;;4910862;29;20063;-90
2021/11/09 04:03:26;;;;;;;0.47;0.10;;;10.90;63.80;;;;;;4910780;29;20068;-88
2021/11/09 04:05:55;;;;;;;0.38;0.25;;;10.90;63.80;;;;;;4894776;29;20479;-88
2021/11/09 04:11:04;;;;;;;1.13;0.30;;;10.90;63.50;;;;;;4914423;29;20024;-87
2021/11/09 04:21:59;;;;;;;0.17;0.10;;;10.90;63.60;;;;;;4914162;29;20039;-86
2021/11/09 04:40:53;;;;;;;0.65;0.10;;;10.80;63.20;;;;;;4916060;29;20581;-84
2021/11/09 05:01:10;;;;;;;0.80;0.25;;;10.90;63.10;;;;;;4912370;29;20522;-86
2021/11/09 05:09:48;;;;;;;0.45;0.20;;;10.80;62.00;;;;;;4918098;29;20149;-86
2021/11/09 05:12:13;;;;;;;1.00;0.40;;;10.80;61.70;;;;;;4907783;29;20462;-84
2021/11/09 05:14:39;;;;;;;0.50;0.20;;;10.80;61.70;;;;;;4912253;29;20047;-85
2021/11/09 05:17:05;;;;;;;0.10;0.10;;;10.70;61.60;;;;;;4883849;29;20060;-85
2021/11/09 05:19:31;;;;;;;0.60;0.20;;;10.70;61.60;;;;;;4914657;29;20503;-84
2021/11/09 05:21:57;;;;;;;0.30;0.25;;;10.70;61.60;;;;;;4901677;29;20036;-85
2021/11/09 05:24:23;;;;;;;1.45;0.40;;;10.60;61.70;;;;;;4918445;29;20095;-84
2021/11/09 05:26:49;;;;;;;0.32;0.32;;;10.60;61.90;;;;;;4918546;29;20036;-84
2021/11/09 05:29:15;;;;;;;0.30;0.30;;;10.60;62.00;;;;;;4917724;29;20040;-83
2021/11/09 05:31:42;;;;;;;1.85;0.50;;;10.60;62.10;;;;;;4916678;29;20047;-84
2021/11/09 05:34:10;;;;;;;0.60;0.50;;;10.60;61.90;;;;;;4918292;29;20372;-83
2021/11/09 05:36:38;;;;;;;2.45;0.73;;;10.50;61.90;;;;;;4916776;29;20458;-83
2021/11/09 05:39:12;;;;;;;0.95;0.60;;;10.50;61.90;;;;;;4912626;29;20139;-82
2021/11/09 05:41:39;;;;;;;0.90;0.80;;;10.50;62.00;;;;;;4896528;29;20725;-83
2021/11/09 05:44:09;;;;;;;1.45;0.77;;;10.50;61.90;;;;;;4913187;29;20035;-84
2021/11/09 05:46:37;;;;;;;0.50;0.50;;;10.40;61.60;;;;;;4912638;29;20487;-86
2021/11/09 05:49:04;;;;;;;1.17;0.57;;;10.50;61.20;;;;;;4913380;29;20036;-84
2021/11/09 05:51:31;;;;;;;1.10;0.70;;;10.40;61.00;;;;;;4912214;29;20032;-85
2021/11/09 05:53:58;;;;;;;2.10;0.73;;;10.30;61.00;;;;;;4912025;29;20624;-82
2021/11/09 05:56:24;;;;;;;1.58;0.93;;;10.30;61.10;;;;;;4919242;29;20032;-84
2021/11/09 05:58:50;;;;;;;1.05;0.50;;;10.30;61.20;;;;;;4911812;29;20512;-84
2021/11/09 06:01:16;;;;;;;2.13;0.80;;;10.30;61.30;;;;;;4895852;29;20484;-84
2021/11/09 06:03:42;;;;;;;0.80;0.52;;;10.30;61.20;;;;;;4911617;29;20044;-84
2021/11/09 06:06:07;;;;;;;0.70;0.70;;;10.20;61.30;;;;;;4912162;29;20044;-82
2021/11/09 06:08:33;;;;;;;1.70;1.20;;;10.20;61.60;;;;;;4913111;29;20043;-86
2021/11/09 06:10:59;;;;;;;2.58;1.58;;;10.20;61.80;;;;;;4895529;29;20028;-85
2021/11/09 06:13:25;;;;;;;3.15;1.73;;;10.20;63.20;;;;;;4913712;29;20044;-85
2021/11/09 06:15:51;;;;;;;1.90;1.65;;;10.20;63.40;;;;;;4913497;29;20039;-88
2021/11/09 06:18:17;;;;;;;2.70;1.90;;;10.20;62.90;;;;;;4912521;29;20036;-86
2021/11/09 06:20:43;;;;;;;2.38;2.15;;;10.20;62.40;;;;;;4878456;29;20032;-86
2021/11/09 06:23:09;;;;;;;3.38;2.63;;;10.20;62.00;;;;;;4895481;29;20115;-87
2021/11/09 06:25:35;;;;;;;2.97;2.40;;;10.20;61.70;;;;;;4912201;29;20036;-86
2021/11/09 06:28:04;;;;;;;2.58;2.35;;;10.10;61.60;;;;;;4911838;29;20312;-86
2021/11/09 06:30:31;;;;;;;3.08;2.47;;;10.20;61.50;;;;;;4895355;29;20051;-86
2021/11/09 06:32:57;;;;;;;2.88;2.47;;;10.20;61.20;;;;;;4911605;29;20040;-85
2021/11/09 06:35:23;;;;;;;3.85;2.30;;;10.20;60.80;;;;;;4912365;29;20047;-86
2021/11/09 06:37:49;;;;;;;4.35;2.60;;;10.20;60.80;;;;;;4913389;29;20031;-86
2021/11/09 06:40:15;;;;;;;3.20;2.40;;;10.10;60.50;;;;;;4913663;29;20435;-86
2021/11/09 06:42:42;;;;;;;3.45;2.20;;;10.20;60.30;;;;;;4879407;29;20559;-84
2021/11/09 06:45:08;;;;;;;3.40;2.22;;;10.10;60.20;;;;;;4912811;29;20039;-85
2021/11/09 06:47:34;;;;;;;2.85;2.40;;;10.10;59.90;;;;;;4913416;29;20051;-85
2021/11/09 06:50:00;;;;;;;2.55;2.08;;;10.10;59.90;;;;;;4896102;29;20040;-88
2021/11/09 06:52:26;;;;;;;2.53;2.08;;;10.10;60.40;;;;;;4894509;29;20443;-87
2021/11/09 06:54:52;;;;;;;2.75;2.20;;;10.10;59.70;;;;;;4895473;29;20041;-87
2021/11/09 06:57:18;;;;;;;3.40;2.10;;;10.00;59.70;;;;;;4910916;29;20043;-86
2021/11/09 06:59:47;;;;;;;3.03;2.35;;;10.00;59.80;;;;;;4911160;29;20032;-88
2021/11/09 07:02:13;;;;;;;4.25;2.03;;;10.00;59.30;;;;;;4911155;29;20039;-87
2021/11/09 07:04:39;;;;;;;2.00;1.77;;;10.00;58.90;;;;;;4895321;29;20424;-87
2021/11/09 07:07:06;;;;;;;2.05;1.63;;;10.00;59.10;;;;;;4917087;29;20068;-84
2021/11/09 07:09:32;;;;;;;4.80;2.03;;;9.90;59.10;;;;;;4902914;29;20036;-87
2021/11/09 07:11:58;;;;;;;2.67;2.05;;;9.90;59.20;;;;;;4910845;29;20043;-86
2021/11/09 07:14:24;;;;;;;3.38;2.00;;;9.90;59.30;;;;;;4910912;29;20036;-86
2021/11/09 07:16:52;;;;;;;2.22;1.80;;;9.90;59.90;;;;;;4878454;29;20032;-88
2021/11/09 07:19:18;;;;;;;3.03;1.73;;;9.90;59.80;;;;;;4911117;29;20044;-83
2021/11/09 07:21:49;;;;;;;4.85;2.13;;;9.80;59.50;;;;;;4893963;29;20446;-88
2021/11/09 07:24:15;;;;;;;2.75;1.70;;;9.80;59.30;;;;;;4910635;29;20039;-88
2021/11/09 07:26:41;;;;;;;2.67;1.73;;;9.80;59.10;;;;;;4912481;29;20036;-84
2021/11/09 07:29:07;;;;;;;1.92;1.60;;;9.80;59.00;;;;;;4896101;29;20403;-86
2021/11/09 07:31:33;;;;;;;3.03;1.42;;;9.80;59.60;;;;;;4912219;29;20140;-84
2021/11/09 07:34:00;;;;;;;1.88;1.17;;;9.80;58.90;;;;;;4911485;29;20470;-83
2021/11/09 07:36:26;;;;;;;1.77;1.20;;;9.80;58.80;;;;;;4894368;29;20397;-85
2021/11/09 07:38:53;;;;;;;2.97;1.10;;;9.80;58.80;;;;;;4910685;29;20058;-87
2021/11/09 07:41:19;;;;;;;1.48;1.38;;;9.80;58.10;;;;;;4910799;29;20098;-86
2021/11/09 07:43:45;;;;;;;1.63;0.90;;;9.80;58.20;;;;;;4894241;29;20039;-87
2021/11/09 07:46:11;;;;;;;1.88;1.13;;;9.80;57.80;;;;;;4913534;29;20078;-89
2021/11/09 07:48:37;;;;;;;1.23;0.82;;;9.80;57.80;;;;;;4911177;29;20095;-86
2021/11/09 07:51:03;;;;;;;0.80;0.80;;;9.80;57.50;;;;;;4912441;29;20440;-88
2021/11/09 07:53:31;;;;;;;3.58;0.90;;;9.70;57.30;;;;;;4910993;29;21055;-84
2021/11/09 07:56:13;;;;;;;4.47;1.40;;;9.70;57.20;;;;;;4911215;29;20028;-84
2021/11/09 08:01:15;;;;;;;1.85;1.02;;;9.80;61.70;;;;;;4912605;29;20068;-91
2021/11/09 08:03:50;;;;;;;1.23;0.80;;;9.90;60.30;;;;;;4913177;29;20043;-89
2021/11/09 08:06:26;;;;;;;1.05;0.73;;;9.90;59.20;;;;;;4915443;29;20048;-89
2021/11/09 08:11:36;;;;;;;2.55;1.10;;;9.90;58.40;;;;;;4914671;29;20032;-91
2021/11/09 08:14:02;;;;;;;3.25;0.90;;;9.90;58.10;;;;;;4912092;29;20479;-90
2021/11/09 08:16:29;;;;;;;1.83;1.00;;;9.90;57.80;;;;;;4911126;29;20122;-92
2021/11/09 08:18:54;;;;;;;1.50;0.80;;;9.90;57.50;;;;;;4912204;29;20039;-91
2021/11/09 08:21:20;;;;;;;0.90;0.60;;;9.80;57.50;;;;;;4913221;29;20048;-90
2021/11/09 08:23:49;;;;;;;2.08;0.90;;;9.80;57.30;;;;;;4909391;29;20040;-92
2021/11/09 08:26:17;;;;;;;2.53;1.02;;;9.80;56.80;;;;;;4909961;29;20136;-92
2021/11/09 08:28:44;;;;;;;1.65;0.88;;;9.70;56.80;;;;;;4917838;29;20047;-91
2021/11/09 08:31:13;;;;;;;0.68;0.60;;;9.70;56.60;;;;;;4897327;29;20032;-89
2021/11/09 08:33:39;;;;;;;1.67;0.75;;;9.70;56.60;;;;;;4910671;29;20058;-90
2021/11/09 08:36:08;;;;;;;2.35;0.88;;;9.70;56.60;;;;;;4911309;29;20511;-92
2021/11/09 08:38:36;;;;;;;2.85;0.90;;;9.70;56.40;;;;;;4911386;29;20392;-93
2021/11/09 08:41:02;;;;;;;1.98;0.77;;;9.70;56.60;;;;;;4910653;29;20032;-88
2021/11/09 08:43:32;;;;;;;1.42;1.00;;;9.70;57.40;;;;;;4918072;29;20435;-92
2021/11/09 08:46:09;;;;;;;1.33;0.63;;;9.70;61.70;;;;;;4909892;29;20024;-88
2021/11/09 08:48:38;;;;;;;1.63;0.85;;;9.80;61.30;;;;;;4910241;29;20087;-90
2021/11/09 08:51:08;;;;;;;0.85;0.63;;;9.80;60.00;;;;;;4909865;29;20119;-90
2021/11/09 08:53:40;;;;;;;1.50;0.50;;;9.90;59.10;;;;;;4910461;29;20092;-90
2021/11/09 08:56:22;;;;;;;1.58;0.85;;;9.90;58.40;;;;;;4914427;29;20032;-91
2021/11/09 09:04:19;;;;;;;1.27;0.90;;;10.00;57.40;;;;;;4939533;29;20055;-83
2021/11/09 09:06:46;;;;;;;1.95;1.00;;;10.00;57.00;;;;;;4940404;29;20012;-83
2021/11/09 09:09:13;;;;;;;1.35;0.70;;;10.00;56.70;;;;;;4939349;29;20055;-83
2021/11/09 09:11:39;;;;;;;1.35;0.80;;;10.00;56.70;;;;;;4922481;29;20024;-83
2021/11/09 09:14:05;;;;;;;1.70;0.80;;;9.90;56.70;;;;;;4939561;29;20113;-84
2021/11/09 09:16:34;;;;;;;2.47;1.20;;;9.90;56.80;;;;;;4921554;29;20063;-88
2021/11/09 09:19:01;;;;;;;2.55;0.80;;;10.00;56.70;;;;;;4927677;29;20054;-89
2021/11/09 09:21:51;;;;;;;1.45;0.82;;;9.90;56.70;;;;;;4919800;29;20091;-90
2021/11/09 09:24:30;;;;;;;0.93;0.70;;;9.90;56.30;;;;;;4919103;29;20048;-90
2021/11/09 09:29:42;;;;;;;0.88;0.85;;;9.90;56.20;;;;;;4917881;29;20040;-90
2021/11/09 09:32:41;;;;;;;0.93;0.63;;;9.90;56.10;;;;;;4923534;29;20093;-87
2021/11/09 09:56:52;;;;;;;2.78;0.93;;;9.90;55.40;;;;;;4898298;29;20055;-91
2021/11/09 09:59:39;;;;;;;1.77;0.98;;;9.90;55.40;;;;;;4921603;29;20046;-82
2021/11/09 10:02:15;;;;;;;4.43;1.10;;;9.90;55.50;;;;;;4913046;29;20095;-84
2021/11/09 10:04:51;;;;;;;1.60;0.90;;;9.90;55.60;;;;;;4897507;29;20075;-82
2021/11/09 10:07:34;;;;;;;3.17;0.77;;;9.80;55.30;;;;;;4904345;29;20040;-80
2021/11/09 10:10:03;;;;;;;1.80;0.70;;;9.90;55.20;;;;;;4937285;29;20086;-83
2021/11/09 10:12:34;;;;;;;1.83;1.00;;;9.90;55.20;;;;;;4937318;29;20024;-84
2021/11/09 10:15:19;;;;;;;6.55;1.48;;;9.90;56.70;;;;;;4931031;29;20040;-83
2021/11/09 10:17:51;;;;;;;8.45;1.80;;;10.10;67.30;;;;;;4933418;29;20071;-85
2021/11/09 10:20:18;;;;;;;2.92;0.82;;;10.40;69.10;;;;;;4933662;29;20043;-87
2021/11/09 10:22:48;;;;;;;1.58;0.88;;;10.60;68.80;;;;;;4938123;29;20035;-77
2021/11/09 10:25:16;;;;;;;3.13;1.00;;;10.70;65.80;;;;;;4935739;29;20044;-81
2021/11/09 10:27:49;;;;;;;2.05;0.88;;;10.70;63.40;;;;;;4916720;29;20131;-80
2021/11/09 10:30:38;;;;;;;2.55;0.85;;;10.70;61.60;;;;;;4931742;29;20155;-82
2021/11/09 10:33:24;;;;;;;2.58;0.70;;;10.60;60.30;;;;;;4922862;29;20044;-85
2021/11/09 10:37:11;;;;;;;1.95;0.80;;;10.70;59.60;;;;;;4904179;29;20048;-85
2021/11/09 10:39:37;;;;;;;3.80;0.82;;;10.60;58.10;;;;;;4870416;29;20048;-82
2021/11/09 10:43:02;;;;;;;1.00;0.70;;;10.50;57.90;;;;;;4900223;29;20090;-85
2021/11/09 10:45:33;;;;;;;2.05;0.82;;;10.50;57.30;;;;;;4822766;29;20048;-84
2021/11/09 10:48:02;;;;;;;0.55;0.52;;;10.40;56.50;;;;;;4897419;29;20098;-87
2021/11/09 10:50:36;;;;;;;1.73;0.80;;;10.40;56.40;;;;;;4898106;29;20511;-87
2021/11/09 10:53:55;;;;;;;1.00;0.68;;;10.40;56.20;;;;;;4896022;29;20036;-86
2021/11/09 10:56:47;;;;;;;;;;;;;;;;;;;;;
2021/11/09 11:03:57;;;;;;;1.23;0.73;;;10.20;55.50;;;;;;4841256;29;20492;-86
2021/11/09 11:07:05;;;;;;;;;;;;;;;;;;;;;
2021/11/09 11:10:40;;;;;;;3.22;0.80;;;10.20;55.40;;;;;;4911145;29;20409;-87
2021/11/09 11:13:39;;;;;;;1.95;0.90;;;10.20;55.20;;;;;;4872622;29;20040;-86
2021/11/09 11:16:26;;;;;;;2.15;0.77;;;10.10;55.00;;;;;;4833880;29;20042;-87
2021/11/09 11:18:56;;;;;;;4.05;0.70;;;10.10;55.00;;;;;;4835568;29;20132;-87
2021/11/09 11:21:31;;;;;;;2.08;0.75;;;10.10;54.90;;;;;;4836480;29;20050;-84
2021/11/09 11:23:57;;;;;;;1.40;1.02;;;10.10;54.50;;;;;;4833778;29;20065;-87
2021/11/09 11:26:23;;;;;;;3.28;0.90;;;10.10;54.50;;;;;;4886731;29;20051;-87
2021/11/09 11:28:53;;;;;;;2.70;1.10;;;10.10;54.40;;;;;;4893467;29;20032;-86
2021/11/09 11:31:20;;;;;;;1.85;0.98;;;10.10;54.30;;;;;;4910929;29;20044;-84
2021/11/09 11:33:50;;;;;;;3.08;0.60;;;10.00;54.40;;;;;;4912903;29;20036;-85
2021/11/09 11:36:16;;;;;;;1.10;0.60;;;10.00;54.50;;;;;;4911182;29;20060;-85
2021/11/09 11:38:45;;;;;;;2.08;0.90;;;10.00;54.20;;;;;;4893175;29;20458;-84
2021/11/09 11:41:12;;;;;;;4.80;0.93;;;10.00;54.70;;;;;;4910435;29;20131;-87
2021/11/09 11:43:47;;;;;;;2.03;1.15;;;10.00;54.80;;;;;;4910922;29;20127;-85
2021/11/09 11:46:33;;;;;;;3.42;0.88;;;9.90;54.50;;;;;;4910948;29;20036;-88
2021/11/09 11:49:10;;;;;;;2.88;0.93;;;9.90;54.70;;;;;;4883692;29;20044;-83
2021/11/09 11:51:44;;;;;;;1.35;0.60;;;9.90;54.40;;;;;;4916866;29;20039;-87
2021/11/09 11:54:11;;;;;;;3.20;0.88;;;9.90;54.80;;;;;;4893190;29;20040;-87
2021/11/09 11:56:41;;;;;;;3.15;1.00;;;9.90;54.60;;;;;;4915524;29;20418;-88
2021/11/09 11:59:22;;;;;;;2.38;0.90;;;9.90;54.40;;;;;;4905490;29;20042;-87
2021/11/09 12:01:58;;;;;;;2.13;0.80;;;9.90;54.50;;;;;;4910375;29;20102;-89
2021/11/09 12:04:37;;;;;;;1.85;0.80;;;9.90;54.50;;;;;;4910447;29;20043;-89
2021/11/09 12:07:43;;;;;;;1.38;0.73;;;9.90;54.30;;;;;;4909950;29;20051;-90
2021/11/09 12:10:10;;;;;;;1.38;0.65;;;9.80;54.30;;;;;;4909929;29;20040;-88
2021/11/09 12:12:36;;;;;;;1.55;0.90;;;9.80;54.30;;;;;;4909708;29;20038;-87
2021/11/09 12:15:07;;;;;;;5.90;0.70;;;9.80;54.20;;;;;;4877529;29;20532;-86
2021/11/09 12:17:40;;;;;;;5.10;1.13;;;9.80;54.10;;;;;;4909892;29;20119;-86
2021/11/09 12:20:08;;;;;;;1.85;0.80;;;9.80;54.10;;;;;;4910336;29;20530;-85
2021/11/09 12:22:42;;;;;;;1.92;0.77;;;9.80;54.20;;;;;;4911052;29;20036;-93
2021/11/09 12:25:33;;;;;;;1.50;1.02;;;9.80;54.90;;;;;;4893113;29;20040;-88
2021/11/09 12:28:11;;;;;;;3.08;0.80;;;9.80;55.20;;;;;;4909560;29;20032;-89
2021/11/09 12:30:41;;;;;;;2.08;0.85;;;9.80;54.90;;;;;;4900396;29;20071;-91
2021/11/09 12:33:19;;;;;;;2.50;1.10;;;9.80;54.40;;;;;;4892086;29;20599;-89
2021/11/09 12:35:49;;;;;;;4.40;1.10;;;9.80;54.20;;;;;;4919865;29;20062;-92
2021/11/09 12:38:16;;;;;;;2.33;0.90;;;9.80;54.40;;;;;;4928214;29;20031;-95
2021/11/09 12:40:49;;;;;;;3.03;0.88;;;9.80;57.10;;;;;;4930311;29;20099;-94
2021/11/09 12:43:29;;;;;;;3.63;0.90;;;9.80;56.50;;;;;;4929166;29;20072;-94
2021/11/09 12:46:29;;;;;;;1.75;0.70;;;9.80;55.40;;;;;;4920099;29;20129;-93
2021/11/09 12:49:06;;;;;;;4.30;0.70;;;9.80;54.60;;;;;;4934374;29;20040;-96
2021/11/09 12:51:37;;;;;;;3.35;0.93;;;9.80;54.20;;;;;;4934835;29;20479;-94
2021/11/09 12:54:09;;;;;;;2.28;0.90;;;9.70;53.80;;;;;;5012549;23;20063;-92
2021/11/09 12:56:39;;;;;;;2.97;0.75;;;9.70;53.80;;;;;;4917738;29;20043;-93
2021/11/09 12:59:20;;;;;;;2.22;0.73;;;9.70;53.60;;;;;;4920946;29;20511;-95
2021/11/09 13:07:45;;;;;;;1.85;1.00;;;9.70;53.50;;;;;;5200263;23;20027;31
2021/11/09 13:10:20;;;;;;;2.92;0.93;;;9.70;52.90;;;;;;4894893;29;20041;-83
2021/11/09 13:12:50;;;;;;;3.45;1.15;;;9.70;53.00;;;;;;4910502;29;20047;-93
2021/11/09 13:15:22;;;;;;;2.75;0.77;;;9.60;53.00;;;;;;4908031;29;20029;-94
2021/11/09 13:17:54;;;;;;;2.97;1.13;;;9.60;53.00;;;;;;4914672;29;20032;-92
2021/11/09 13:23:08;;;;;;;4.32;1.15;;;9.60;53.20;;;;;;4885212;29;20024;-93
2021/11/09 13:25:38;;;;;;;2.45;0.90;;;9.60;53.00;;;;;;4901509;29;20024;-94
2021/11/09 13:28:36;;;;;;;3.70;0.95;;;9.60;52.90;;;;;;4886266;29;21477;-86
2021/11/09 13:31:10;;;;;;;2.85;1.20;;;9.60;52.80;;;;;;4903066;29;20427;-94
2021/11/09 13:33:40;;;;;;;3.20;1.05;;;9.50;53.00;;;;;;4899555;29;20415;-93
2021/11/09 13:36:08;;;;;;;2.75;0.98;;;9.50;53.00;;;;;;4905855;29;20028;-88
2021/11/09 13:38:37;;;;;;;1.67;1.00;;;9.40;52.90;;;;;;4899079;29;20033;-91
2021/11/09 13:41:18;;;;;;;6.90;2.00;;;9.40;53.00;;;;;;4899669;29;20044;-82
2021/11/09 13:43:53;;;;;;;2.17;0.80;;;9.40;52.90;;;;;;4909005;29;20041;-85
2021/11/09 13:46:29;;;;;;;3.78;1.10;;;9.40;52.70;;;;;;4888039;29;20043;-92
2021/11/09 13:48:59;;;;;;;2.90;1.00;;;9.30;52.60;;;;;;4877700;29;20037;-89
2021/11/09 13:51:34;;;;;;;4.90;1.20;;;9.30;52.60;;;;;;4893544;29;20067;-85
2021/11/09 13:54:14;;;;;;;2.28;1.10;;;9.30;52.60;;;;;;4905079;29;20043;-94
2021/11/09 13:56:42;;;;;;;2.97;1.20;;;9.20;52.50;;;;;;4901624;29;20041;-92
2021/11/09 13:59:10;;;;;;;3.20;1.15;;;9.20;52.50;;;;;;4902988;29;20047;-86
2021/11/09 14:01:45;;;;;;;1.90;1.00;;;9.20;52.60;;;;;;4904320;29;20036;-93
2021/11/09 14:07:37;;;;;;;2.00;1.10;;;9.20;52.50;;;;;;4895821;29;20036;-91
2021/11/09 14:18:13;;;;;;;2.47;1.17;;;9.10;53.30;;;;;;4905577;29;20040;-87
2021/11/09 14:20:59;;;;;;;2.13;1.00;;;9.10;52.80;;;;;;4902855;29;20039;-90
2021/11/09 14:23:40;;;;;;;1.30;0.73;;;9.10;52.80;;;;;;4907307;29;20041;-87
2021/11/09 14:26:21;;;;;;;1.63;0.75;;;9.10;52.70;;;;;;4895205;29;20040;-87
2021/11/09 14:28:48;;;;;;;2.65;0.70;;;9.10;52.70;;;;;;4860259;29;20043;-89
2021/11/09 14:31:18;;;;;;;1.52;0.90;;;9.00;52.50;;;;;;4894058;29;20534;-89
2021/11/09 14:33:48;;;;;;;6.03;1.50;;;9.10;52.70;;;;;;4893867;29;20036;-86
2021/11/09 14:36:26;;;;;;;2.47;0.80;;;9.10;52.60;;;;;;4895108;29;20119;-87
2021/11/09 14:39:08;;;;;;;3.55;0.80;;;9.00;52.50;;;;;;4877611;29;20045;-89
2021/11/09 14:41:39;;;;;;;1.77;0.70;;;9.10;52.50;;;;;;4892068;29;20032;-92
2021/11/09 14:44:08;;;;;;;2.80;0.93;;;9.10;52.60;;;;;;4903119;29;20416;-83
2021/11/09 14:46:41;;;;;;;2.45;0.70;;;9.10;52.60;;;;;;4906356;29;20040;-89
2021/11/09 14:49:09;;;;;;;2.67;0.93;;;9.10;52.40;;;;;;4908401;29;20051;-88
2021/11/09 14:51:35;;;;;;;2.42;0.70;;;9.00;52.40;;;;;;4906799;29;20036;-88
2021/11/09 14:54:13;;;;;;;1.20;0.80;;;9.00;52.40;;;;;;4905704;29;20028;-89
2021/11/09 14:56:40;;;;;;;1.33;0.70;;;9.00;52.40;;;;;;4888759;29;20032;-91
2021/11/09 14:59:08;;;;;;;2.22;0.95;;;9.00;52.20;;;;;;4902628;29;20037;-89
2021/11/09 15:01:43;;;;;;;1.40;1.05;;;9.00;52.30;;;;;;4904386;29;20095;-87
2021/11/09 15:04:35;;;;;;;1.73;0.90;;;9.00;52.10;;;;;;4907679;29;20032;-87
2021/11/09 15:12:20;;;;;;;3.25;0.90;;;9.00;52.20;;;;;;4893483;29;20032;-91
2021/11/09 15:28:33;;;;;;;3.67;0.70;;;8.90;52.20;;;;;;4892088;29;20032;-90
2021/11/09 15:31:26;;;;;;;2.42;1.00;;;8.90;52.40;;;;;;4892435;29;20037;-91
2021/11/09 15:36:55;;;;;;;1.05;0.95;;;8.90;52.60;;;;;;4900145;29;20047;-89
2021/11/09 15:39:28;;;;;;;2.35;1.10;;;8.90;52.70;;;;;;4894156;29;20032;-88
2021/11/09 15:41:55;;;;;;;0.80;0.80;;;8.90;52.50;;;;;;4894756;29;20044;-86
2021/11/09 15:44:23;;;;;;;2.25;1.08;;;8.90;52.70;;;;;;4876022;29;20028;-88
2021/11/09 15:46:55;;;;;;;1.42;0.98;;;8.80;52.60;;;;;;4890503;29;20132;-89
2021/11/09 15:49:25;;;;;;;1.55;1.00;;;8.90;52.60;;;;;;4873798;29;20527;-88
2021/11/09 15:51:52;;;;;;;0.95;0.90;;;8.90;52.60;;;;;;4891271;29;20052;-88
2021/11/09 15:54:18;;;;;;;2.85;0.93;;;8.90;52.40;;;;;;4891854;29;20033;-87
2021/11/09 15:56:44;;;;;;;3.75;0.98;;;8.90;52.60;;;;;;4891799;29;20036;-84
2021/11/09 15:59:11;;;;;;;2.42;0.70;;;8.90;52.30;;;;;;4890939;29;20041;-87
2021/11/09 16:01:40;;;;;;;3.58;0.95;;;8.90;52.10;;;;;;4891832;29;21202;-87